createdAt,value
2023-01-19T00:01:08.682Z,93776.95
2023-01-19T00:03:35.028Z,93777.09
2023-01-19T00:06:01.440Z,93772.73
2023-01-19T00:08:27.760Z,93772.73
2023-01-19T00:10:54.149Z,93768.38
2023-01-19T00:13:20.490Z,93785.03
2023-01-19T00:15:46.884Z,93766.42
2023-01-19T00:18:13.227Z,93774.03
2023-01-19T00:20:39.601Z,93775.14
2023-01-19T00:23:05.934Z,93770.96
2023-01-19T00:25:32.327Z,93793.27
2023-01-19T00:28:00.637Z,93785.34
2023-01-19T00:30:25.049Z,93794.56
2023-01-19T00:32:51.440Z,93802.47
2023-01-19T00:35:17.785Z,93801.52
2023-01-19T00:37:44.160Z,93785.66
2023-01-19T00:40:10.532Z,93773.40
2023-01-19T00:42:36.921Z,93786.33
2023-01-19T00:45:03.284Z,93787.14
2023-01-19T00:47:29.665Z,93781.79
2023-01-19T00:49:56.025Z,93784.05
2023-01-19T00:52:22.401Z,93757.73
2023-01-19T00:54:48.763Z,93757.73
2023-01-19T00:57:15.137Z,93759.33
2023-01-19T00:59:41.472Z,93764.67
2023-01-19T01:02:08.022Z,93758.84
2023-01-19T01:04:34.233Z,93743.66
2023-01-19T01:07:00.614Z,93732.98
2023-01-19T01:09:26.941Z,93724.75
2023-01-19T01:11:53.336Z,93724.75
2023-01-19T01:14:19.716Z,93714.11
2023-01-19T01:16:46.103Z,93718.14
2023-01-19T01:19:12.482Z,93716.37
2023-01-19T01:21:38.857Z,93709.91
2023-01-19T01:24:05.194Z,93707.47
2023-01-19T01:26:31.590Z,93704.73
2023-01-19T01:28:57.947Z,93705.87
2023-01-19T01:31:27.670Z,93702.00
2023-01-19T01:33:53.998Z,93685.53
2023-01-19T01:36:20.367Z,93698.27
2023-01-19T01:38:46.715Z,93697.45
2023-01-19T01:41:13.111Z,93717.52
2023-01-19T01:43:39.446Z,93708.13
2023-01-19T01:46:05.895Z,93710.23
2023-01-19T01:48:32.215Z,93733.17
2023-01-19T01:50:58.590Z,93731.25
2023-01-19T01:53:24.934Z,93738.67
2023-01-19T01:55:51.321Z,93740.78
2023-01-19T01:58:17.659Z,93739.63
2023-01-19T02:00:44.096Z,93740.11
2023-01-19T02:03:10.458Z,93737.53
2023-01-19T02:05:36.835Z,93721.72
2023-01-19T02:08:04.172Z,93731.25
2023-01-19T02:10:29.579Z,93743.52
2023-01-19T02:12:55.928Z,93738.82
2023-01-19T02:15:22.310Z,93751.93
2023-01-19T02:17:48.692Z,93748.20
2023-01-19T02:20:15.081Z,93737.53
2023-01-19T02:22:41.422Z,93726.89
2023-01-19T02:25:07.809Z,93717.98
2023-01-19T02:27:34.152Z,93737.23
2023-01-19T02:30:00.552Z,93726.89
2023-01-19T02:32:26.890Z,93699.08
2023-01-19T02:34:53.273Z,93699.08
2023-01-19T02:37:19.602Z,93713.81
2023-01-19T02:39:45.988Z,93722.34
2023-01-19T02:42:12.327Z,93726.41
2023-01-19T02:44:38.719Z,93711.23
2023-01-19T02:47:05.063Z,93715.41
2023-01-19T02:49:31.554Z,93712.34
2023-01-19T02:51:57.908Z,93718.17
2023-01-19T02:54:24.291Z,93727.22
2023-01-19T02:56:50.658Z,93719.77
2023-01-19T02:59:17.089Z,93728.81
2023-01-19T03:01:43.482Z,93726.41
2023-01-19T03:04:09.776Z,93717.03
2023-01-19T03:06:36.132Z,93722.05
2023-01-19T03:09:02.518Z,93708.97
2023-01-19T03:11:28.886Z,93712.67
2023-01-19T03:13:55.276Z,93712.81
2023-01-19T03:16:22.505Z,93706.69
2023-01-19T03:18:48.006Z,93704.91
2023-01-19T03:21:14.378Z,93707.35
2023-01-19T03:23:40.752Z,93702.81
2023-01-19T03:26:07.109Z,93696.17
2023-01-19T03:28:33.505Z,93704.73
2023-01-19T03:30:59.873Z,93708.79
2023-01-19T03:33:26.232Z,93709.42
2023-01-19T03:35:52.581Z,93719.43
2023-01-19T03:38:18.967Z,93690.70
2023-01-19T03:40:45.315Z,93702.14
2023-01-19T03:43:11.706Z,93702.81
2023-01-19T03:45:38.050Z,93700.05
2023-01-19T03:48:04.449Z,93702.00
2023-01-19T03:50:30.773Z,93696.17
2023-01-19T03:52:57.154Z,93700.55
2023-01-19T03:55:23.517Z,93708.61
2023-01-19T03:57:49.898Z,93711.19
2023-01-19T04:00:16.248Z,93695.87
2023-01-19T04:02:42.700Z,93692.47
2023-01-19T04:05:08.979Z,93696.98
2023-01-19T04:07:35.366Z,93712.66
2023-01-19T04:10:01.741Z,93717.66
2023-01-19T04:12:28.131Z,93712.97
2023-01-19T04:14:54.481Z,93713.63
2023-01-19T04:17:20.867Z,93722.67
2023-01-19T04:19:47.206Z,93732.86
2023-01-19T04:22:13.625Z,93723.81
2023-01-19T04:24:39.959Z,93730.09
2023-01-19T04:27:06.337Z,93743.02
2023-01-19T04:29:32.685Z,93734.30
2023-01-19T04:31:59.079Z,93730.42
2023-01-19T04:34:25.416Z,93732.67
2023-01-19T04:36:51.806Z,93727.20
2023-01-19T04:39:18.160Z,93743.02
2023-01-19T04:41:44.546Z,93752.06
2023-01-19T04:44:10.884Z,93752.72
2023-01-19T04:46:37.364Z,93745.78
2023-01-19T04:49:03.646Z,93747.23
2023-01-19T04:51:30.059Z,93759.97
2023-01-19T04:53:56.405Z,93756.76
2023-01-19T04:56:22.777Z,93751.73
2023-01-19T04:58:49.115Z,93767.73
2023-01-19T05:01:15.537Z,93769.35
2023-01-19T05:03:41.869Z,93761.11
2023-01-19T05:06:08.291Z,93774.22
2023-01-19T05:08:34.633Z,93784.71
2023-01-19T05:11:01.004Z,93786.19
2023-01-19T05:13:27.399Z,93786.19
2023-01-19T05:15:53.836Z,93803.63
2023-01-19T05:18:20.114Z,93782.46
2023-01-19T05:20:46.497Z,93797.49
2023-01-19T05:23:12.848Z,93792.32
2023-01-19T05:25:39.357Z,93811.53
2023-01-19T05:28:05.716Z,93818.33
2023-01-19T05:30:32.145Z,93821.06
2023-01-19T05:32:58.886Z,93826.41
2023-01-19T05:35:35.239Z,93831.09
2023-01-19T05:37:51.238Z,93830.14
2023-01-19T05:40:17.634Z,93831.73
2023-01-19T05:42:43.977Z,93832.22
2023-01-19T05:45:10.358Z,93827.70
2023-01-19T05:47:36.721Z,93839.81
2023-01-19T05:50:03.087Z,93845.47
2023-01-19T05:52:29.435Z,93845.47
2023-01-19T05:54:55.821Z,93837.23
2023-01-19T05:57:22.165Z,93829.97
2023-01-19T05:59:48.540Z,93836.60
2023-01-19T06:02:14.972Z,93839.81
2023-01-19T06:04:41.319Z,93852.57
2023-01-19T06:07:07.656Z,93852.90
2023-01-19T06:09:34.045Z,93852.90
2023-01-19T06:12:00.378Z,93867.93
2023-01-19T06:14:26.769Z,93871.30
2023-01-19T06:16:53.106Z,93857.08
2023-01-19T06:19:19.494Z,93853.05
2023-01-19T06:21:45.834Z,93853.05
2023-01-19T06:24:13.768Z,93847.54
2023-01-19T06:26:38.580Z,93849.83
2023-01-19T06:29:04.949Z,93849.83
2023-01-19T06:31:31.362Z,93851.42
2023-01-19T06:33:57.687Z,93845.77
2023-01-19T06:36:24.055Z,93847.69
2023-01-19T06:38:50.457Z,93853.50
2023-01-19T06:41:16.801Z,93849.65
2023-01-19T06:43:43.207Z,93841.84
2023-01-19T06:46:09.599Z,93841.84
2023-01-19T06:48:35.930Z,93865.29
2023-01-19T06:51:02.270Z,93859.97
2023-01-19T06:53:28.645Z,93859.97
2023-01-19T06:55:54.996Z,93882.26
2023-01-19T06:58:21.375Z,93886.14
2023-01-19T07:00:47.763Z,93878.86
2023-01-19T07:03:14.116Z,93878.86
2023-01-19T07:05:40.453Z,93893.71
2023-01-19T07:08:06.836Z,93894.20
2023-01-19T07:11:24.689Z,93888.05
2023-01-19T07:12:59.959Z,93899.19
2023-01-19T07:15:25.899Z,93878.98
2023-01-19T07:17:52.350Z,93878.98
2023-01-19T07:20:18.691Z,93891.41
2023-01-19T07:22:45.075Z,93891.41
2023-01-19T07:25:11.422Z,93853.11
2023-01-19T07:27:37.811Z,93890.11
2023-01-19T07:30:04.146Z,93891.89
2023-01-19T07:32:30.527Z,93885.42
2023-01-19T07:34:56.865Z,93891.06
2023-01-19T07:37:23.319Z,93880.86
2023-01-19T07:39:49.675Z,93869.38
2023-01-19T07:42:16.179Z,93859.17
2023-01-19T07:44:42.535Z,93859.66
2023-01-19T07:47:08.917Z,93859.66
2023-01-19T07:49:35.259Z,93857.89
2023-01-19T07:52:01.790Z,93877.33
2023-01-19T07:54:28.126Z,93874.22
2023-01-19T07:56:54.513Z,93863.98
2023-01-19T07:59:20.875Z,93847.67
2023-01-19T08:01:47.323Z,93864.51
2023-01-19T08:04:13.649Z,93860.45
2023-01-19T08:06:39.984Z,93858.37
2023-01-19T08:09:06.303Z,93841.39
2023-01-19T08:11:32.682Z,93867.92
2023-01-19T08:13:59.045Z,93851.22
2023-01-19T08:16:25.481Z,93865.33
2023-01-19T08:18:51.823Z,93865.33
2023-01-19T08:21:18.208Z,93869.39
2023-01-19T08:23:44.630Z,93861.78
2023-01-19T08:26:10.994Z,93861.78
2023-01-19T08:28:37.331Z,93844.17
2023-01-19T08:31:18.515Z,93875.06
2023-01-19T08:33:30.084Z,93856.13
2023-01-19T08:35:56.475Z,93856.13
2023-01-19T08:38:22.895Z,93864.88
2023-01-19T08:40:49.209Z,93877.18
2023-01-19T08:43:15.583Z,93877.18
2023-01-19T08:45:41.989Z,93875.73
2023-01-19T08:48:08.322Z,93885.09
2023-01-19T08:50:34.714Z,93874.29
2023-01-19T08:53:01.468Z,93874.29
2023-01-19T08:55:27.481Z,93876.69
2023-01-19T08:57:53.831Z,93862.49
2023-01-19T09:00:20.208Z,93862.49
2023-01-19T09:02:46.571Z,93865.37
2023-01-19T09:05:12.924Z,93865.37
2023-01-19T09:07:39.291Z,93833.77
2023-01-19T09:10:05.736Z,93833.77
2023-01-19T09:12:32.091Z,93829.95
2023-01-19T09:14:58.496Z,93827.61
2023-01-19T09:17:24.864Z,93820.41
2023-01-19T09:19:51.236Z,93820.41
2023-01-19T09:22:17.577Z,93809.56
2023-01-19T09:24:43.952Z,93810.61
2023-01-19T09:27:10.297Z,93801.09
2023-01-19T09:29:36.676Z,93807.65
2023-01-19T09:32:03.022Z,93807.65
2023-01-19T09:34:29.425Z,93803.48
2023-01-19T09:36:55.764Z,93798.31
2023-01-19T09:39:22.189Z,93798.42
2023-01-19T09:41:48.528Z,93777.44
2023-01-19T09:44:14.917Z,93793.06
2023-01-19T09:46:41.323Z,93796.61
2023-01-19T09:49:07.655Z,93778.34
2023-01-19T09:51:34.031Z,93796.98
2023-01-19T09:54:00.466Z,93791.25
2023-01-19T09:56:29.191Z,93789.66
2023-01-19T09:58:55.576Z,93803.03
2023-01-19T10:01:22.012Z,93793.19
2023-01-19T10:03:48.380Z,93780.58
2023-01-19T10:06:14.767Z,93780.58
2023-01-19T10:08:41.144Z,93792.91
2023-01-19T10:11:07.486Z,93781.97
2023-01-19T10:13:33.877Z,93781.97
2023-01-19T10:16:00.299Z,93770.14
2023-01-19T10:18:26.677Z,93788.61
2023-01-19T10:20:53.011Z,93783.56
2023-01-19T10:23:19.409Z,93772.00
2023-01-19T10:25:45.794Z,93772.94
2023-01-19T10:28:12.216Z,93764.48
2023-01-19T10:30:38.611Z,93763.02
2023-01-19T10:33:05.004Z,93754.01
2023-01-19T10:35:31.372Z,93757.22
2023-01-19T10:37:57.794Z,93764.22
2023-01-19T10:40:24.111Z,93765.52
2023-01-19T10:42:50.548Z,93766.91
2023-01-19T10:45:16.922Z,93764.48
2023-01-19T10:47:43.282Z,93761.70
2023-01-19T10:50:09.648Z,93757.13
2023-01-19T10:52:35.961Z,93766.04
2023-01-19T10:55:02.456Z,93760.72
2023-01-19T10:57:28.839Z,93761.56
2023-01-19T10:59:55.261Z,93758.84
2023-01-19T11:02:21.807Z,93767.76
2023-01-19T11:04:49.938Z,93777.66
2023-01-19T11:07:14.306Z,93766.98
2023-01-19T11:09:40.721Z,93755.56
2023-01-19T11:12:07.064Z,93763.22
2023-01-19T11:14:33.469Z,93759.95
2023-01-19T11:16:59.864Z,93750.54
2023-01-19T11:19:26.264Z,93751.09
2023-01-19T11:21:52.604Z,93741.80
2023-01-19T11:24:19.036Z,93738.40
2023-01-19T11:26:45.433Z,93742.52
2023-01-19T11:29:11.875Z,93735.67
2023-01-19T11:31:38.244Z,93729.32
2023-01-19T11:34:04.605Z,93735.36
2023-01-19T11:36:30.950Z,93726.67
2023-01-19T11:38:57.327Z,93719.60
2023-01-19T11:41:23.668Z,93709.91
2023-01-19T11:43:50.046Z,93710.81
2023-01-19T11:46:16.384Z,93725.31
2023-01-19T11:48:42.808Z,93719.51
2023-01-19T11:51:09.150Z,93732.02
2023-01-19T11:53:35.569Z,93732.99
2023-01-19T11:56:01.916Z,93738.29
2023-01-19T11:58:28.316Z,93732.30
2023-01-19T12:00:54.707Z,93717.78
2023-01-19T12:03:21.159Z,93715.55
2023-01-19T12:05:48.406Z,93724.62
2023-01-19T12:08:13.827Z,93718.76
2023-01-19T12:10:40.175Z,93721.55
2023-01-19T12:13:06.553Z,93716.45
2023-01-19T12:15:32.890Z,93719.77
2023-01-19T12:17:59.736Z,93711.27
2023-01-19T12:20:25.655Z,93707.52
2023-01-19T12:22:52.037Z,93709.78
2023-01-19T12:25:18.417Z,93701.19
2023-01-19T12:27:44.797Z,93707.64
2023-01-19T12:30:11.160Z,93708.80
2023-01-19T12:32:37.534Z,93705.64
2023-01-19T12:35:03.883Z,93726.27
2023-01-19T12:37:30.301Z,93726.81
2023-01-19T12:39:56.640Z,93730.75
2023-01-19T12:42:23.024Z,93730.16
2023-01-19T12:44:49.372Z,93728.34
2023-01-19T12:47:15.770Z,93737.12
2023-01-19T12:49:42.164Z,93741.61
2023-01-19T12:52:08.538Z,93728.32
2023-01-19T12:54:34.875Z,93711.39
2023-01-19T12:57:01.263Z,93727.02
2023-01-19T12:59:28.563Z,93719.03
2023-01-19T13:01:54.043Z,93719.03
2023-01-19T13:04:20.329Z,93738.55
2023-01-19T13:06:46.717Z,93744.68
2023-01-19T13:09:13.055Z,93742.92
2023-01-19T13:11:39.442Z,93730.56
2023-01-19T13:14:05.781Z,93776.13
2023-01-19T13:16:32.165Z,93770.48
2023-01-19T13:18:58.527Z,93775.98
2023-01-19T13:21:24.907Z,93779.67
2023-01-19T13:23:51.302Z,93779.51
2023-01-19T13:26:17.649Z,93773.53
2023-01-19T13:28:43.990Z,93780.34
2023-01-19T13:31:10.438Z,93774.14
2023-01-19T13:33:38.591Z,93783.88
2023-01-19T13:36:03.124Z,93773.53
2023-01-19T13:38:29.484Z,93770.94
2023-01-19T13:40:55.881Z,93772.39
2023-01-19T13:43:22.297Z,93758.98
2023-01-19T13:45:51.127Z,93766.11
2023-01-19T13:48:15.068Z,93747.83
2023-01-19T13:50:41.452Z,93755.64
2023-01-19T13:53:07.809Z,93749.86
2023-01-19T13:55:34.221Z,93753.07
2023-01-19T13:58:00.568Z,93750.48
2023-01-19T14:00:26.983Z,93752.94
2023-01-19T14:02:53.464Z,93753.39
2023-01-19T14:05:19.727Z,93755.66
2023-01-19T14:07:46.159Z,93762.95
2023-01-19T14:10:12.445Z,93751.98
2023-01-19T14:12:48.141Z,93762.14
2023-01-19T14:15:05.426Z,93773.30
2023-01-19T14:17:31.528Z,93760.69
2023-01-19T14:19:57.940Z,93765.87
2023-01-19T14:22:24.249Z,93765.87
2023-01-19T14:24:50.663Z,93727.08
2023-01-19T14:27:16.999Z,93750.48
2023-01-19T14:29:43.359Z,93751.31
2023-01-19T14:32:09.693Z,93750.00
2023-01-19T14:34:36.081Z,93750.48
2023-01-19T14:37:02.455Z,93750.48
2023-01-19T14:39:28.842Z,93747.75
2023-01-19T14:41:55.181Z,93730.83
2023-01-19T14:44:21.567Z,93751.62
2023-01-19T14:46:47.971Z,93751.62
2023-01-19T14:49:14.285Z,93747.94
2023-01-19T14:51:40.629Z,93747.94
2023-01-19T14:54:07.010Z,93766.95
2023-01-19T14:56:33.348Z,93769.20
2023-01-19T14:58:59.773Z,93769.20
2023-01-19T15:01:26.236Z,93773.92
2023-01-19T15:03:52.514Z,93778.45
2023-01-19T15:06:18.855Z,93771.16
2023-01-19T15:08:45.273Z,93759.02
2023-01-19T15:11:11.661Z,93770.02
2023-01-19T15:13:38.967Z,93767.42
2023-01-19T15:16:04.401Z,93772.60
2023-01-19T15:18:30.771Z,93803.89
2023-01-19T15:20:57.118Z,93803.89
2023-01-19T15:23:23.511Z,93814.39
2023-01-19T15:25:49.857Z,93819.09
2023-01-19T15:28:16.233Z,93824.42
2023-01-19T15:30:42.623Z,93844.20
2023-01-19T15:33:10.162Z,93844.69
2023-01-19T15:35:35.303Z,93834.16
2023-01-19T15:38:01.700Z,93813.78
2023-01-19T15:40:28.044Z,93802.96
2023-01-19T15:42:54.467Z,93767.73
2023-01-19T15:45:21.883Z,93813.00
2023-01-19T15:47:48.209Z,93830.51
2023-01-19T15:50:14.545Z,93848.80
2023-01-19T15:52:40.995Z,93849.94
2023-01-19T15:55:07.649Z,93858.19
2023-01-19T15:57:33.710Z,93846.85
2023-01-19T16:00:00.114Z,93860.97
2023-01-19T16:02:26.535Z,93880.04
2023-01-19T16:04:52.832Z,93861.77
2023-01-19T16:07:19.229Z,93889.94
2023-01-19T16:09:45.555Z,93890.75
2023-01-19T16:12:11.962Z,93866.67
2023-01-19T16:14:38.303Z,93906.42
2023-01-19T16:17:04.685Z,93906.42
2023-01-19T16:19:31.017Z,93905.03
2023-01-19T16:21:57.459Z,93953.56
2023-01-19T16:24:23.799Z,93953.23
2023-01-19T16:26:50.192Z,94003.25
2023-01-19T16:29:16.530Z,94003.25
2023-01-19T16:31:42.959Z,94013.62
2023-01-19T16:34:09.251Z,94010.36
2023-01-19T16:36:35.645Z,94013.80
2023-01-19T16:39:01.990Z,94001.96
2023-01-19T16:41:28.399Z,93970.39
2023-01-19T16:43:54.722Z,93970.39
2023-01-19T16:46:21.156Z,93967.48
2023-01-19T16:48:47.461Z,93967.48
2023-01-19T16:51:13.835Z,93963.29
2023-01-19T16:53:40.186Z,93979.77
2023-01-19T16:56:06.575Z,93979.77
2023-01-19T16:58:32.912Z,93983.35
2023-01-19T17:00:59.431Z,93998.56
2023-01-19T17:03:25.646Z,94002.30
2023-01-19T17:05:52.057Z,93989.19
2023-01-19T17:08:19.621Z,93989.19
2023-01-19T17:10:44.780Z,93985.31
2023-01-19T17:13:11.113Z,93981.73
2023-01-19T17:15:37.504Z,93981.73
2023-01-19T17:18:03.841Z,93938.55
2023-01-19T17:20:30.245Z,93959.41
2023-01-19T17:22:56.582Z,93971.70
2023-01-19T17:25:22.967Z,93979.47
2023-01-19T17:27:49.313Z,93973.80
2023-01-19T17:30:16.919Z,93997.11
2023-01-19T17:32:42.031Z,93998.89
2023-01-19T17:35:08.405Z,93983.35
2023-01-19T17:37:34.746Z,93965.22
2023-01-19T17:40:01.176Z,93965.22
2023-01-19T17:42:27.464Z,93932.23
2023-01-19T17:44:53.847Z,93963.93
2023-01-19T17:47:20.188Z,93970.25
2023-01-19T17:49:46.572Z,93987.41
2023-01-19T17:52:12.909Z,93987.41
2023-01-19T17:54:39.289Z,93984.34
2023-01-19T17:57:05.648Z,93984.34
2023-01-19T17:59:32.043Z,93967.03
2023-01-19T18:01:58.457Z,93987.23
2023-01-19T18:04:24.784Z,93992.92
2023-01-19T18:06:51.155Z,93993.23
2023-01-19T18:09:17.538Z,93977.05
2023-01-19T18:11:43.900Z,93988.86
2023-01-19T18:14:10.301Z,94001.03
2023-01-19T18:16:36.635Z,94006.35
2023-01-19T18:19:03.032Z,93995.69
2023-01-19T18:21:29.377Z,94019.30
2023-01-19T18:23:55.772Z,94018.16
2023-01-19T18:26:22.117Z,94018.16
2023-01-19T18:28:48.505Z,94027.24
2023-01-19T18:31:14.912Z,94017.70
2023-01-19T18:33:41.247Z,94018.34
2023-01-19T18:36:07.585Z,94020.59
2023-01-19T18:38:33.964Z,94020.59
2023-01-19T18:41:00.300Z,94003.93
2023-01-19T18:43:26.683Z,94003.93
2023-01-19T18:45:53.024Z,94020.29
2023-01-19T18:48:19.418Z,94003.12
2023-01-19T18:50:45.775Z,94003.12
2023-01-19T18:53:12.147Z,93990.02
2023-01-19T18:55:38.482Z,94012.66
2023-01-19T18:58:04.865Z,94012.66
2023-01-19T19:00:31.205Z,94012.18
2023-01-19T19:03:00.140Z,94012.18
2023-01-19T19:05:26.469Z,93999.90
2023-01-19T19:07:52.799Z,93990.51
2023-01-19T19:10:19.140Z,93990.51
2023-01-19T19:12:45.531Z,94005.20
2023-01-19T19:15:11.874Z,94029.80
2023-01-19T19:17:38.275Z,94030.31
2023-01-19T19:20:04.614Z,94035.98
2023-01-19T19:22:31.017Z,94035.98
2023-01-19T19:24:57.371Z,94034.34
2023-01-19T19:27:23.770Z,94022.55
2023-01-19T19:29:50.116Z,94032.91
2023-01-19T19:32:16.557Z,94015.10
2023-01-19T19:34:42.867Z,94025.28
2023-01-19T19:37:09.244Z,94051.84
2023-01-19T19:39:35.588Z,94059.61
2023-01-19T19:42:01.980Z,94063.01
2023-01-19T19:44:28.332Z,94061.86
2023-01-19T19:46:54.719Z,94061.53
2023-01-19T19:49:21.058Z,94061.53
2023-01-19T19:51:47.436Z,94061.23
2023-01-19T19:54:13.772Z,94054.76
2023-01-19T19:56:40.169Z,94051.98
2023-01-19T19:59:06.519Z,94048.27
2023-01-19T20:01:33.974Z,94048.09
2023-01-19T20:03:59.247Z,94055.38
2023-01-19T20:06:25.629Z,94054.91
2023-01-19T20:08:51.991Z,94054.91
2023-01-19T20:11:18.385Z,94060.26
2023-01-19T20:13:44.727Z,94024.02
2023-01-19T20:16:11.185Z,94043.91
2023-01-19T20:18:37.473Z,94024.80
2023-01-19T20:21:03.890Z,94039.54
2023-01-19T20:23:33.348Z,94033.06
2023-01-19T20:25:59.740Z,94025.31
2023-01-19T20:28:26.073Z,94036.28
2023-01-19T20:30:52.499Z,94036.28
2023-01-19T20:33:18.805Z,94027.23
2023-01-19T20:35:45.180Z,94027.55
2023-01-19T20:38:11.572Z,94016.08
2023-01-19T20:40:37.941Z,94016.08
2023-01-19T20:43:04.368Z,94005.57
2023-01-19T20:45:30.769Z,94008.97
2023-01-19T20:47:57.093Z,94013.98
2023-01-19T20:50:23.531Z,94019.31
2023-01-19T20:52:49.868Z,94010.58
2023-01-19T20:55:16.235Z,94018.16
2023-01-19T20:57:42.590Z,94013.98
2023-01-19T21:00:08.982Z,93996.34
2023-01-19T21:02:35.361Z,93987.44
2023-01-19T21:05:01.705Z,93978.56
2023-01-19T21:07:28.043Z,93973.71
2023-01-19T21:09:54.486Z,93988.42
2023-01-19T21:12:20.823Z,93988.42
2023-01-19T21:14:47.196Z,93950.53
2023-01-19T21:17:13.585Z,93950.53
2023-01-19T21:19:39.925Z,93975.64
2023-01-19T21:22:06.665Z,93971.26
2023-01-19T21:24:33.021Z,93971.26
2023-01-19T21:26:59.424Z,93982.91
2023-01-19T21:29:25.755Z,93996.52
2023-01-19T21:31:52.181Z,94013.95
2023-01-19T21:34:18.481Z,94013.95
2023-01-19T21:36:44.931Z,94026.39
2023-01-19T21:39:11.209Z,94028.49
2023-01-19T21:41:37.592Z,94031.55
2023-01-19T21:44:03.952Z,94031.55
2023-01-19T21:46:30.366Z,94027.19
2023-01-19T21:48:56.692Z,94018.80
2023-01-19T21:51:23.075Z,93986.75
2023-01-19T21:53:49.416Z,93968.66
2023-01-19T21:56:15.801Z,93987.89
2023-01-19T21:58:42.151Z,93947.95
2023-01-19T22:01:08.645Z,93947.95
2023-01-19T22:03:34.886Z,93942.77
2023-01-19T22:06:01.266Z,93942.77
2023-01-19T22:08:27.609Z,93949.73
2023-01-19T22:10:53.987Z,93941.50
2023-01-19T22:13:20.370Z,93947.63
2023-01-19T22:15:46.751Z,93966.06
2023-01-19T22:18:13.101Z,93986.27
2023-01-19T22:20:39.474Z,93986.27
2023-01-19T22:23:05.814Z,93947.29
2023-01-19T22:25:32.227Z,93948.58
2023-01-19T22:27:58.568Z,93951.02
2023-01-19T22:30:24.995Z,93947.45
2023-01-19T22:32:51.292Z,93896.86
2023-01-19T22:35:17.668Z,93896.86
2023-01-19T22:37:44.011Z,93926.28
2023-01-19T22:40:10.406Z,93939.54
2023-01-19T22:42:36.747Z,93939.54
2023-01-19T22:45:03.125Z,93923.53
2023-01-19T22:47:29.479Z,93917.40
2023-01-19T22:49:55.867Z,93918.54
2023-01-19T22:52:22.225Z,93913.84
2023-01-19T22:54:48.605Z,93908.02
2023-01-19T22:57:14.943Z,93908.02
2023-01-19T22:59:41.324Z,93909.16
2023-01-19T23:02:07.713Z,93911.90
2023-01-19T23:04:34.042Z,93911.90
2023-01-19T23:07:00.379Z,93909.97
2023-01-19T23:09:26.769Z,93909.97
2023-01-19T23:11:53.132Z,93932.75
2023-01-19T23:14:19.514Z,93935.34
2023-01-19T23:16:45.851Z,93931.30
2023-01-19T23:19:12.294Z,93925.65
2023-01-19T23:21:38.622Z,93925.65
2023-01-19T23:24:04.992Z,93913.52
2023-01-19T23:26:31.345Z,93913.52
2023-01-19T23:28:57.778Z,93932.25
2023-01-19T23:31:24.199Z,93951.34
2023-01-19T23:33:50.555Z,93966.69
2023-01-19T23:36:16.926Z,93966.69
2023-01-19T23:38:43.283Z,93999.98
2023-01-19T23:41:09.644Z,94010.50
2023-01-19T23:43:36.030Z,94020.52
2023-01-19T23:46:02.453Z,94028.60
2023-01-19T23:48:28.804Z,94030.20
2023-01-19T23:50:55.148Z,94030.05
2023-01-19T23:53:21.537Z,94031.00
2023-01-19T23:55:47.912Z,94026.00
2023-01-19T23:58:14.298Z,94023.56
